createdAt,value
2023-03-08T00:01:59.576Z,27.33
2023-03-08T00:04:29.200Z,23.60
2023-03-08T00:06:59.034Z,30.00
2023-03-08T00:09:28.872Z,26.77
2023-03-08T00:11:58.685Z,29.03
2023-03-08T00:14:28.457Z,29.67
2023-03-08T00:16:58.694Z,28.30
2023-03-08T00:19:28.476Z,27.70
2023-03-08T00:21:58.687Z,27.53
2023-03-08T00:24:28.282Z,29.50
2023-03-08T00:26:58.122Z,27.57
2023-03-08T00:29:27.948Z,32.13
2023-03-08T00:31:59.407Z,31.90
2023-03-08T00:34:29.186Z,30.93
2023-03-08T00:36:58.945Z,28.23
2023-03-08T00:39:28.695Z,34.73
2023-03-08T00:41:58.469Z,31.83
2023-03-08T00:44:28.037Z,29.40
2023-03-08T00:46:57.972Z,31.63
2023-03-08T00:49:27.939Z,30.03
2023-03-08T00:51:58.002Z,30.52
2023-03-08T00:54:27.828Z,28.27
2023-03-08T00:56:57.857Z,29.07
2023-03-08T00:59:28.008Z,28.87
2023-03-08T01:01:58.756Z,29.50
2023-03-08T01:04:28.672Z,29.00
2023-03-08T01:06:59.332Z,29.80
2023-03-08T01:09:29.093Z,33.57
2023-03-08T01:11:58.967Z,27.53
2023-03-08T01:14:30.009Z,27.80
2023-03-08T01:16:59.776Z,30.43
2023-03-08T01:19:29.720Z,26.40
2023-03-08T01:22:00.360Z,26.40
2023-03-08T01:24:30.186Z,27.73
2023-03-08T01:27:00.926Z,25.53
2023-03-08T01:29:30.710Z,29.67
2023-03-08T01:32:00.552Z,28.27
2023-03-08T01:34:30.398Z,29.80
2023-03-08T01:37:00.187Z,24.20
2023-03-08T01:39:29.955Z,25.83
2023-03-08T01:41:59.719Z,26.43
2023-03-08T01:44:32.186Z,29.97
2023-03-08T01:47:01.964Z,27.20
2023-03-08T01:49:36.022Z,29.20
2023-03-08T01:52:12.866Z,30.15
2023-03-08T01:54:48.986Z,27.95
2023-03-08T01:57:21.763Z,28.42
2023-03-08T01:59:53.966Z,29.23
2023-03-08T02:02:29.864Z,36.05
2023-03-08T02:04:59.834Z,31.75
2023-03-08T02:07:31.164Z,38.03
2023-03-08T02:10:01.326Z,32.70
2023-03-08T02:12:31.211Z,35.43
2023-03-08T02:15:03.355Z,29.10
2023-03-08T02:17:35.143Z,35.03
2023-03-08T02:20:20.931Z,32.43
2023-03-08T02:22:52.363Z,36.67
2023-03-08T02:25:25.711Z,39.98
2023-03-08T02:27:56.295Z,37.57
2023-03-08T02:30:28.772Z,41.53
2023-03-08T02:32:58.718Z,41.47
2023-03-08T02:35:32.005Z,45.12
2023-03-08T02:38:01.821Z,52.83
2023-03-08T02:40:33.566Z,55.57
2023-03-08T02:43:03.653Z,56.10
2023-03-08T02:45:34.440Z,64.80
2023-03-08T02:48:07.369Z,68.88
2023-03-08T02:50:37.460Z,67.80
2023-03-08T02:53:08.120Z,84.10
2023-03-08T02:55:38.184Z,74.47
2023-03-08T02:58:11.839Z,76.88
2023-03-08T03:00:42.114Z,81.40
2023-03-08T03:03:12.049Z,88.53
2023-03-08T03:05:45.702Z,84.33
2023-03-08T03:08:16.953Z,90.23
2023-03-08T03:10:46.753Z,96.23
2023-03-08T03:13:16.823Z,106.93
2023-03-08T03:15:46.679Z,93.43
2023-03-08T03:18:16.547Z,98.23
2023-03-08T03:20:46.357Z,96.27
2023-03-08T03:23:16.181Z,118.07
2023-03-08T03:25:47.672Z,93.77
2023-03-08T03:28:18.911Z,110.15
2023-03-08T03:30:49.917Z,91.17
2023-03-08T03:33:19.938Z,131.33
2023-03-08T03:35:50.000Z,114.88
2023-03-08T03:38:20.687Z,140.73
2023-03-08T03:40:50.988Z,113.93
2023-03-08T03:43:21.019Z,94.77
2023-03-08T03:46:01.873Z,106.17
2023-03-08T03:48:32.257Z,109.23
2023-03-08T03:51:07.227Z,102.25
2023-03-08T03:53:37.628Z,95.50
2023-03-08T03:56:13.144Z,103.37
2023-03-08T03:58:43.587Z,104.10
2023-03-08T04:01:17.509Z,109.33
2023-03-08T04:03:47.762Z,96.67
2023-03-08T04:06:20.625Z,95.03
2023-03-08T04:08:53.951Z,99.37
2023-03-08T04:11:26.298Z,90.20
2023-03-08T04:13:57.045Z,101.67
2023-03-08T04:16:30.669Z,101.90
2023-03-08T04:19:03.724Z,93.93
2023-03-08T04:21:34.706Z,102.03
2023-03-08T04:24:06.584Z,99.10
2023-03-08T04:26:37.728Z,139.10
2023-03-08T04:29:07.883Z,111.90
2023-03-08T04:31:38.196Z,142.93
2023-03-08T04:34:11.911Z,110.22
2023-03-08T04:36:43.039Z,108.03
2023-03-08T04:39:12.901Z,101.73
2023-03-08T04:41:42.885Z,123.13
2023-03-08T04:44:14.224Z,104.67
2023-03-08T04:46:45.858Z,92.93
2023-03-08T04:49:17.666Z,101.45
2023-03-08T04:51:49.130Z,92.93
2023-03-08T04:54:19.123Z,100.80
2023-03-08T04:56:50.667Z,100.17
2023-03-08T04:59:21.721Z,123.93
2023-03-08T05:01:53.052Z,93.10
2023-03-08T05:04:22.984Z,103.70
2023-03-08T05:06:52.744Z,97.40
2023-03-08T05:09:24.596Z,94.80
2023-03-08T05:11:55.182Z,100.07
2023-03-08T05:14:25.125Z,98.72
2023-03-08T05:16:58.068Z,94.05
2023-03-08T05:19:28.066Z,93.67
2023-03-08T05:21:57.893Z,92.23
2023-03-08T05:24:27.755Z,90.12
2023-03-08T05:26:58.564Z,90.22
2023-03-08T05:29:28.708Z,110.42
2023-03-08T05:32:00.930Z,94.13
2023-03-08T05:34:31.909Z,111.60
2023-03-08T05:37:01.945Z,97.80
2023-03-08T05:39:32.227Z,101.70
2023-03-08T05:42:03.709Z,98.03
2023-03-08T05:44:36.130Z,106.83
2023-03-08T05:47:06.159Z,106.60
2023-03-08T05:49:36.045Z,99.83
2023-03-08T05:52:07.118Z,105.27
2023-03-08T05:54:39.545Z,108.63
2023-03-08T05:57:11.041Z,110.67
2023-03-08T05:59:40.886Z,123.13
2023-03-08T06:02:11.965Z,117.97
2023-03-08T06:04:49.821Z,110.70
2023-03-08T06:07:21.308Z,115.93
2023-03-08T06:09:52.983Z,106.50
2023-03-08T06:12:22.848Z,119.77
2023-03-08T06:14:54.702Z,109.67
2023-03-08T06:17:26.127Z,114.80
2023-03-08T06:19:57.095Z,104.10
2023-03-08T06:22:26.932Z,91.90
2023-03-08T06:24:57.413Z,101.50
2023-03-08T06:27:29.099Z,98.33
2023-03-08T06:30:00.954Z,105.90
2023-03-08T06:32:32.604Z,106.97
2023-03-08T06:35:02.875Z,103.37
2023-03-08T06:37:37.178Z,95.60
2023-03-08T06:40:11.889Z,101.38
2023-03-08T06:42:42.115Z,104.17
2023-03-08T06:45:13.862Z,108.17
2023-03-08T06:47:43.979Z,102.92
2023-03-08T06:50:15.150Z,101.80
2023-03-08T06:52:46.741Z,93.30
2023-03-08T06:55:17.589Z,100.67
2023-03-08T06:57:47.386Z,88.57
2023-03-08T07:00:17.511Z,92.70
2023-03-08T07:02:48.549Z,97.53
2023-03-08T07:05:18.138Z,99.50
2023-03-08T07:07:47.960Z,101.83
2023-03-08T07:10:20.314Z,89.40
2023-03-08T07:12:51.496Z,88.37
2023-03-08T07:15:23.350Z,94.63
2023-03-08T07:17:57.729Z,102.67
2023-03-08T07:20:28.526Z,92.60
2023-03-08T07:23:00.343Z,92.22
2023-03-08T07:25:30.132Z,87.00
2023-03-08T07:28:02.905Z,88.50
2023-03-08T07:30:33.105Z,87.47
2023-03-08T07:33:02.914Z,86.93
2023-03-08T07:35:32.777Z,93.90
2023-03-08T07:38:02.725Z,83.70
2023-03-08T07:40:32.800Z,93.00
2023-03-08T07:43:02.640Z,87.03
2023-03-08T07:45:34.390Z,75.63
2023-03-08T07:48:06.975Z,90.32
2023-03-08T07:50:37.496Z,79.63
2023-03-08T07:53:08.106Z,81.30
2023-03-08T07:55:39.114Z,79.13
2023-03-08T07:58:11.284Z,82.10
2023-03-08T08:00:41.369Z,84.47
2023-03-08T08:03:11.183Z,79.80
2023-03-08T08:05:41.466Z,77.03
2023-03-08T08:08:13.814Z,73.10
2023-03-08T08:10:44.364Z,74.97
2023-03-08T08:13:14.286Z,79.33
2023-03-08T08:15:44.069Z,67.40
2023-03-08T08:18:13.901Z,67.55
2023-03-08T08:20:44.352Z,69.13
2023-03-08T08:23:14.136Z,67.87
2023-03-08T08:25:45.588Z,70.33
2023-03-08T08:28:15.433Z,72.80
2023-03-08T08:30:45.472Z,71.07
2023-03-08T08:33:15.177Z,68.67
2023-03-08T08:35:45.122Z,63.20
2023-03-08T08:38:14.908Z,71.80
2023-03-08T08:40:44.773Z,68.10
2023-03-08T08:43:14.401Z,60.45
2023-03-08T08:45:49.108Z,61.58
2023-03-08T08:48:18.844Z,55.95
2023-03-08T08:50:48.625Z,57.73
2023-03-08T08:53:18.620Z,55.47
2023-03-08T08:55:48.514Z,54.00
2023-03-08T08:58:18.142Z,47.30
2023-03-08T09:00:48.201Z,48.27
2023-03-08T09:03:18.254Z,48.33
2023-03-08T09:05:48.148Z,44.97
2023-03-08T09:08:17.968Z,45.63
2023-03-08T09:10:48.128Z,45.25
2023-03-08T09:13:17.942Z,49.07
2023-03-08T09:15:47.823Z,47.53
2023-03-08T09:18:17.609Z,44.20
2023-03-08T09:20:47.373Z,44.73
2023-03-08T09:23:17.182Z,44.30
2023-03-08T09:25:46.981Z,46.53
2023-03-08T09:28:16.782Z,43.95
2023-03-08T09:30:46.284Z,44.98
2023-03-08T09:33:16.250Z,47.07
2023-03-08T09:35:46.051Z,42.57
2023-03-08T09:38:15.862Z,41.35
2023-03-08T09:40:48.642Z,32.80
2023-03-08T09:43:21.780Z,35.10
2023-03-08T09:45:55.021Z,37.20
2023-03-08T09:48:29.620Z,33.13
2023-03-08T09:51:03.865Z,38.37
2023-03-08T09:53:42.513Z,37.63
2023-03-08T09:56:17.865Z,33.18
2023-03-08T09:58:50.357Z,30.17
2023-03-08T10:01:41.308Z,27.97
2023-03-08T10:04:26.623Z,30.94
2023-03-08T10:07:30.559Z,26.55
2023-03-08T10:10:09.728Z,29.70
2023-03-08T10:12:50.862Z,31.30
2023-03-08T10:15:23.411Z,27.20
2023-03-08T10:18:08.347Z,28.90
2023-03-08T10:20:41.050Z,30.53
2023-03-08T10:23:22.189Z,33.17
2023-03-08T10:25:52.422Z,34.37
2023-03-08T10:28:27.786Z,33.40
2023-03-08T10:30:59.806Z,33.07
2023-03-08T10:33:37.051Z,26.77
2023-03-08T10:36:12.736Z,32.00
2023-03-08T10:38:42.368Z,31.37
2023-03-08T10:41:15.231Z,26.63
2023-03-08T10:43:53.710Z,26.53
2023-03-08T10:46:26.373Z,25.43
2023-03-08T10:48:56.299Z,25.47
2023-03-08T10:51:29.314Z,29.47
2023-03-08T10:54:02.773Z,28.73
2023-03-08T10:56:56.369Z,29.00
2023-03-08T10:59:30.824Z,23.47
2023-03-08T11:02:04.371Z,30.55
2023-03-08T11:04:34.276Z,23.33
2023-03-08T11:07:13.174Z,21.73
2023-03-08T11:09:42.951Z,20.63
2023-03-08T11:12:15.691Z,22.77
2023-03-08T11:14:45.657Z,18.97
2023-03-08T11:17:37.280Z,21.20
2023-03-08T11:20:24.835Z,14.97
2023-03-08T11:22:57.675Z,18.00
2023-03-08T11:25:39.591Z,18.57
2023-03-08T11:28:20.564Z,14.83
2023-03-08T11:31:12.600Z,16.83
2023-03-08T11:33:48.486Z,15.10
2023-03-08T11:36:38.933Z,17.13
2023-03-08T11:39:20.649Z,16.03
2023-03-08T11:41:56.055Z,17.30
2023-03-08T11:44:43.735Z,17.52
2023-03-08T11:47:40.248Z,20.30
2023-03-08T11:53:36.275Z,16.07
2023-03-08T11:56:27.803Z,18.70
2023-03-08T11:59:15.273Z,17.40
2023-03-08T12:02:05.846Z,18.47
2023-03-08T12:04:53.849Z,16.10
2023-03-08T12:07:35.576Z,17.20
2023-03-08T12:10:33.780Z,15.56
2023-03-08T12:15:36.645Z,10.43
2023-03-08T12:18:16.821Z,12.47
2023-03-08T12:20:47.446Z,14.53
2023-03-08T12:23:20.601Z,10.63
2023-03-08T12:25:53.375Z,14.07
2023-03-08T12:28:25.980Z,12.77
2023-03-08T12:33:40.556Z,12.23
2023-03-08T12:36:11.794Z,10.30
2023-03-08T12:38:47.858Z,12.77
2023-03-08T12:41:23.350Z,10.05
2023-03-08T12:44:26.321Z,9.13
2023-03-08T12:47:13.992Z,11.30
2023-03-08T12:49:47.414Z,9.03
2023-03-08T12:52:23.308Z,7.12
2023-03-08T12:55:20.882Z,8.60
2023-03-08T12:57:53.824Z,7.93
2023-03-08T13:00:29.179Z,10.07
2023-03-08T13:05:46.874Z,9.20
2023-03-08T13:08:23.369Z,7.83
2023-03-08T13:10:58.730Z,12.65
2023-03-08T13:13:46.232Z,9.60
2023-03-08T13:16:21.895Z,10.53
2023-03-08T13:18:55.165Z,8.53
2023-03-08T13:21:36.650Z,11.17
2023-03-08T13:24:23.245Z,10.03
2023-03-08T13:27:04.456Z,7.87
2023-03-08T13:29:35.597Z,8.30
2023-03-08T13:32:18.608Z,9.97
2023-03-08T13:34:54.238Z,9.77
2023-03-08T13:37:28.541Z,10.37
2023-03-08T13:40:00.469Z,9.10
2023-03-08T13:42:30.739Z,8.48
2023-03-08T13:45:12.205Z,8.17
2023-03-08T13:47:43.492Z,8.33
2023-03-08T13:50:21.586Z,7.77
2023-03-08T13:52:52.094Z,8.73
2023-03-08T13:58:07.703Z,11.75
2023-03-08T14:00:37.735Z,6.55
2023-03-08T14:03:07.936Z,7.93
2023-03-08T14:05:45.581Z,10.07
2023-03-08T14:08:24.956Z,8.93
2023-03-08T14:11:04.171Z,10.23
2023-03-08T14:13:36.922Z,9.07
2023-03-08T14:16:09.674Z,8.50
2023-03-08T14:18:43.630Z,8.68
2023-03-08T14:21:18.948Z,12.07
2023-03-08T14:23:54.446Z,7.83
2023-03-08T14:29:19.319Z,8.35
2023-03-08T14:32:04.610Z,7.90
2023-03-08T14:34:45.815Z,8.70
2023-03-08T14:37:29.902Z,9.83
2023-03-08T14:40:36.475Z,9.40
2023-03-08T14:43:09.414Z,11.30
2023-03-08T14:45:42.821Z,7.55
2023-03-08T14:48:18.838Z,8.18
2023-03-08T14:50:57.354Z,7.17
2023-03-08T14:53:30.674Z,9.43
2023-03-08T14:56:03.563Z,10.20
2023-03-08T14:58:35.287Z,7.23
2023-03-08T15:01:05.273Z,9.27
2023-03-08T15:03:35.251Z,7.53
2023-03-08T15:06:09.498Z,5.93
2023-03-08T15:08:39.640Z,9.58
2023-03-08T15:11:09.644Z,7.77
2023-03-08T15:13:39.587Z,9.67
2023-03-08T15:16:14.225Z,8.95
2023-03-08T15:18:43.133Z,8.37
2023-03-08T15:21:16.080Z,9.57
2023-03-08T15:23:47.694Z,9.17
2023-03-08T15:26:20.899Z,11.80
2023-03-08T15:28:50.791Z,11.07
2023-03-08T15:31:21.621Z,8.57
2023-03-08T15:33:51.303Z,10.85
2023-03-08T15:36:21.205Z,8.70
2023-03-08T15:38:50.908Z,9.20
2023-03-08T15:41:20.827Z,10.30
2023-03-08T15:43:51.463Z,9.63
2023-03-08T15:46:21.043Z,12.77
2023-03-08T15:48:51.128Z,11.03
2023-03-08T15:51:23.026Z,9.93
2023-03-08T15:53:52.825Z,10.80
2023-03-08T15:56:22.797Z,13.10
2023-03-08T15:58:54.584Z,12.98
2023-03-08T16:01:27.647Z,9.70
2023-03-08T16:03:58.357Z,11.90
2023-03-08T16:06:28.214Z,11.80
2023-03-08T16:08:58.571Z,11.30
2023-03-08T16:11:28.438Z,11.87
2023-03-08T16:13:58.411Z,13.33
2023-03-08T16:16:42.561Z,12.60
2023-03-08T16:18:59.853Z,14.27
2023-03-08T16:21:29.745Z,11.43
2023-03-08T16:24:01.159Z,11.93
2023-03-08T16:26:31.028Z,14.87
2023-03-08T16:29:00.792Z,12.97
2023-03-08T16:31:32.242Z,14.80
2023-03-08T16:34:06.265Z,16.50
2023-03-08T16:36:36.479Z,16.48
2023-03-08T16:39:07.602Z,18.70
2023-03-08T16:41:38.800Z,14.53
2023-03-08T16:44:21.473Z,16.30
2023-03-08T16:46:52.086Z,15.57
2023-03-08T16:49:23.091Z,14.20
2023-03-08T16:51:52.880Z,12.80
2023-03-08T16:54:22.681Z,15.37
2023-03-08T16:56:52.922Z,14.00
2023-03-08T16:59:22.874Z,15.43
2023-03-08T17:01:52.749Z,15.07
2023-03-08T17:04:23.112Z,13.23
2023-03-08T17:06:53.092Z,14.53
2023-03-08T17:09:23.004Z,17.40
2023-03-08T17:11:52.775Z,16.57
2023-03-08T17:14:22.516Z,18.63
2023-03-08T17:16:52.293Z,13.50
2023-03-08T17:19:22.118Z,17.23
2023-03-08T17:21:52.872Z,16.53
2023-03-08T17:24:22.638Z,18.10
2023-03-08T17:26:53.019Z,21.53
2023-03-08T17:29:23.346Z,18.90
2023-03-08T17:31:53.899Z,19.85
2023-03-08T17:34:23.749Z,22.33
2023-03-08T17:36:53.581Z,21.07
2023-03-08T17:39:23.694Z,17.80
2023-03-08T17:41:53.466Z,17.07
2023-03-08T17:44:23.239Z,25.75
2023-03-08T17:46:53.047Z,22.00
2023-03-08T17:49:24.981Z,20.32
2023-03-08T17:51:54.953Z,24.57
2023-03-08T17:54:24.721Z,30.97
2023-03-08T17:56:54.557Z,26.13
2023-03-08T17:59:24.825Z,21.27
2023-03-08T18:01:54.980Z,25.45
2023-03-08T18:04:24.618Z,20.95
2023-03-08T18:06:54.677Z,23.07
2023-03-08T18:09:24.798Z,26.50
2023-03-08T18:11:54.608Z,25.73
2023-03-08T18:14:34.409Z,26.35
2023-03-08T18:16:56.111Z,22.90
2023-03-08T18:19:26.028Z,27.53
2023-03-08T18:21:57.558Z,31.07
2023-03-08T18:24:28.384Z,29.47
2023-03-08T18:26:58.236Z,26.53
2023-03-08T18:29:27.882Z,23.50
2023-03-08T18:31:57.627Z,29.97
2023-03-08T18:34:27.821Z,24.53
2023-03-08T18:37:01.492Z,27.17
2023-03-08T18:39:31.120Z,25.60
2023-03-08T18:42:02.118Z,25.15
2023-03-08T18:44:32.424Z,24.30
2023-03-08T18:47:02.649Z,25.32
2023-03-08T18:49:32.583Z,23.03
2023-03-08T18:52:02.442Z,24.83
2023-03-08T18:54:33.543Z,29.73
2023-03-08T18:57:03.385Z,25.13
2023-03-08T18:59:36.738Z,28.20
2023-03-08T19:02:11.944Z,34.82
2023-03-08T19:04:45.745Z,25.73
2023-03-08T19:07:16.069Z,26.33
2023-03-08T19:09:46.008Z,25.87
2023-03-08T19:12:16.101Z,21.90
2023-03-08T19:14:47.636Z,24.23
2023-03-08T19:17:17.409Z,26.37
2023-03-08T19:19:47.201Z,24.30
2023-03-08T19:22:19.688Z,25.15
2023-03-08T19:24:49.510Z,24.73
2023-03-08T19:27:19.860Z,25.40
2023-03-08T19:29:49.749Z,25.40
2023-03-08T19:32:19.928Z,25.13
2023-03-08T19:34:49.844Z,22.40
2023-03-08T19:37:19.750Z,27.17
2023-03-08T19:39:50.094Z,26.63
2023-03-08T19:42:19.799Z,28.90
2023-03-08T19:44:50.801Z,28.97
2023-03-08T19:47:20.838Z,32.00
2023-03-08T19:49:50.989Z,27.98
2023-03-08T19:52:20.825Z,29.52
2023-03-08T19:54:50.362Z,27.35
2023-03-08T19:57:20.174Z,31.70
2023-03-08T19:59:50.329Z,29.77
2023-03-08T20:02:19.915Z,30.03
2023-03-08T20:04:50.082Z,27.40
2023-03-08T20:07:19.891Z,31.97
2023-03-08T20:09:52.918Z,29.45
2023-03-08T20:12:22.742Z,32.33
2023-03-08T20:14:52.954Z,35.20
2023-03-08T20:17:23.874Z,34.03
2023-03-08T20:19:53.674Z,32.73
2023-03-08T20:22:23.511Z,32.80
2023-03-08T20:24:53.594Z,31.02
2023-03-08T20:27:23.345Z,32.43
2023-03-08T20:29:53.942Z,35.13
2023-03-08T20:32:23.967Z,35.87
2023-03-08T20:34:53.737Z,37.93
2023-03-08T20:37:23.780Z,44.80
2023-03-08T20:39:58.244Z,43.93
2023-03-08T20:42:27.883Z,39.35
2023-03-08T20:44:57.752Z,38.77
2023-03-08T20:47:27.784Z,36.00
2023-03-08T20:49:57.578Z,51.33
2023-03-08T20:52:27.448Z,42.65
2023-03-08T20:54:57.285Z,51.43
2023-03-08T20:57:27.445Z,45.33
2023-03-08T20:59:57.604Z,48.38
2023-03-08T21:02:27.409Z,40.83
2023-03-08T21:04:58.218Z,43.50
2023-03-08T21:07:28.370Z,39.10
2023-03-08T21:09:58.201Z,41.07
2023-03-08T21:12:27.683Z,38.37
2023-03-08T21:14:58.708Z,36.95
2023-03-08T21:17:30.104Z,43.00
2023-03-08T21:20:00.237Z,42.63
2023-03-08T21:22:32.215Z,43.60
2023-03-08T21:25:02.170Z,39.90
2023-03-08T21:27:32.227Z,37.77
2023-03-08T21:30:02.123Z,39.60
2023-03-08T21:32:32.160Z,38.63
2023-03-08T21:35:02.037Z,40.87
2023-03-08T21:37:31.849Z,40.37
2023-03-08T21:40:01.817Z,41.60
2023-03-08T21:42:31.569Z,39.93
2023-03-08T21:45:01.407Z,39.47
2023-03-08T21:47:31.157Z,41.60
2023-03-08T21:50:01.329Z,45.08
2023-03-08T21:52:31.122Z,38.87
2023-03-08T21:55:01.202Z,43.30
2023-03-08T21:57:33.735Z,40.30
2023-03-08T22:00:04.142Z,43.07
2023-03-08T22:02:35.695Z,40.03
2023-03-08T22:05:07.761Z,41.48
2023-03-08T22:07:37.904Z,38.65
2023-03-08T22:10:09.182Z,39.87
2023-03-08T22:12:39.000Z,38.00
2023-03-08T22:15:09.246Z,37.50
2023-03-08T22:17:39.774Z,35.38
2023-03-08T22:20:13.513Z,34.98
2023-03-08T22:22:44.168Z,38.03
2023-03-08T22:25:14.232Z,37.75
2023-03-08T22:27:44.342Z,36.95
2023-03-08T22:30:14.672Z,36.63
2023-03-08T22:32:44.871Z,37.48
2023-03-08T22:35:15.278Z,38.55
2023-03-08T22:37:45.650Z,39.67
2023-03-08T22:40:18.126Z,39.23
2023-03-08T22:42:48.008Z,36.67
2023-03-08T22:45:17.910Z,34.92
2023-03-08T22:47:48.029Z,38.45
2023-03-08T22:50:17.967Z,38.35
2023-03-08T22:52:47.786Z,32.33
2023-03-08T22:55:17.764Z,38.77
2023-03-08T22:57:47.858Z,39.00
2023-03-08T23:00:19.694Z,36.12
2023-03-08T23:02:49.912Z,34.98
2023-03-08T23:05:21.518Z,36.20
2023-03-08T23:07:53.192Z,40.30
2023-03-08T23:10:22.993Z,40.17
2023-03-08T23:12:52.864Z,36.27
2023-03-08T23:15:22.758Z,37.93
2023-03-08T23:17:52.995Z,37.25
2023-03-08T23:20:22.759Z,35.50
2023-03-08T23:22:52.868Z,36.42
2023-03-08T23:25:22.782Z,36.03
2023-03-08T23:27:52.626Z,38.27
2023-03-08T23:30:22.403Z,38.63
2023-03-08T23:32:52.364Z,39.27
2023-03-08T23:35:22.019Z,39.17
2023-03-08T23:37:51.788Z,40.23
2023-03-08T23:40:21.311Z,37.98
2023-03-08T23:42:51.097Z,38.63
2023-03-08T23:45:21.195Z,38.55
2023-03-08T23:47:51.213Z,41.23
2023-03-08T23:50:21.109Z,39.63
2023-03-08T23:52:50.539Z,35.55
2023-03-08T23:55:20.382Z,41.48
2023-03-08T23:57:50.182Z,40.37
